Hamilton, Ohio
Current Conditions -  °F | °C
As of 4:53 PM on Tuesday 25 Nov 2014 (Local Time) from KHAO Reporting Station
Overcast Overcast  
Wind Chill: 33°   Ceiling: 3600
Heat Index: 39°   Visibility: 10mi
Dew Point: 30°   Wind: 8mph
Humidity: 70%   Direction: 340°NNW
Pressure: 30.15"   Gusts: NA
Location:  39.4°N, 84.56°W
Report Text: KHAO 252153Z AUTO 34007KT 10SM OVC036 04/M01 A3015 RMK AO2 SLP214 T00391011
Loading
Personal Weather Stations






























Interactive Weather Map New forecast layout! Learn more

10-Day Weather Forecast

Advertisements
Track Severe Weather on mobile